Time;durP1;ratioP1;P1;durP2;ratioP2;P2;SDS_P1;SDS_P2;PMS_P1;PMS_P2;Temp;Humidity;BMP_temperature;BMP_pressure;BME280_temperature;BME280_humidity;BME280_pressure;Samples;Min_cycle;Max_cycle;Signal;HPM_P1;HPM_P2
2023/09/23 00:01:06;;;;;;;5.60;5.10;;;;;;;20.17;64.75;100445.59;88484;275;136191;-78
2023/09/23 00:03:08;;;;;;;7.90;5.60;;;;;;;20.16;64.64;100447.92;88446;275;23298;-76
2023/09/23 00:05:11;;;;;;;9.50;5.90;;;;;;;20.16;64.51;100447.10;88382;278;136413;-78
2023/09/23 00:07:14;;;;;;;5.70;5.20;;;;;;;20.15;64.55;100449.85;88644;282;22527;-76
2023/09/23 00:09:18;;;;;;;8.10;5.60;;;;;;;20.15;64.52;100449.74;88515;281;136331;-75
2023/09/23 00:11:19;;;;;;;8.70;5.00;;;;;;;20.15;64.51;100449.58;88571;275;22530;-74
2023/09/23 00:13:21;;;;;;;5.30;4.90;;;;;;;20.14;64.40;100449.89;88331;282;136106;-76
2023/09/23 00:15:23;;;;;;;12.00;5.90;;;;;;;20.14;64.45;100451.14;88401;283;24018;-78
2023/09/23 00:17:27;;;;;;;9.70;4.70;;;;;;;20.13;64.47;100449.82;88306;283;136627;-76
2023/09/23 00:19:33;;;;;;;9.80;6.10;;;;;;;20.13;64.26;100454.31;88646;273;25241;-75
2023/09/23 00:23:14;;;;;;;10.10;5.80;;;;;;;20.05;64.62;100451.11;87214;299;601842;-78
2023/09/23 00:25:18;;;;;;;7.40;6.10;;;;;;;20.05;64.71;100453.92;87897;285;135691;-74
2023/09/23 00:27:21;;;;;;;9.90;5.50;;;;;;;20.03;64.92;100454.16;88057;284;22559;-76
2023/09/23 00:29:25;;;;;;;7.20;6.10;;;;;;;19.98;65.08;100453.71;88058;289;136295;-76
2023/09/23 00:31:26;;;;;;;10.70;6.30;;;;;;;19.93;65.30;100458.14;88417;284;25259;-78
2023/09/23 00:33:30;;;;;;;6.80;6.10;;;;;;;19.89;65.53;100458.61;88054;287;135117;-75
2023/09/23 00:35:36;;;;;;;5.70;5.20;;;;;;;19.83;65.72;100457.49;88420;288;25090;-75
2023/09/23 00:37:43;;;;;;;7.50;6.70;;;;;;;19.77;65.91;100455.28;88694;281;567345;-77
2023/09/23 00:39:45;;;;;;;10.80;6.60;;;;;;;19.72;66.41;100455.06;88676;279;25087;-82
2023/09/23 00:41:47;;;;;;;7.70;5.90;;;;;;;19.66;66.71;100452.33;88204;287;136995;-81
2023/09/23 00:43:50;;;;;;;11.40;6.40;;;;;;;19.62;67.01;100450.80;88352;285;25219;-82
2023/09/23 00:45:54;;;;;;;13.30;6.30;;;;;;;19.57;67.18;100450.14;88166;288;136291;-84
2023/09/23 00:47:57;;;;;;;8.40;6.80;;;;;;;19.53;67.40;100440.91;88266;285;24020;-79
2023/09/23 00:50:03;;;;;;;7.50;6.80;;;;;;;19.50;67.93;100445.34;88339;279;137317;-79
2023/09/23 00:52:07;;;;;;;10.00;6.70;;;;;;;19.45;68.09;100445.77;88270;286;136314;-79
2023/09/23 00:54:13;;;;;;;6.80;6.10;;;;;;;19.39;68.57;100449.55;88191;287;25744;-76
2023/09/23 00:56:18;;;;;;;11.40;7.10;;;;;;;19.36;69.03;100450.58;88358;286;136150;-79
2023/09/23 00:58:22;;;;;;;8.10;6.90;;;;;;;19.34;69.27;100454.27;88266;286;22543;-80
2023/09/23 01:00:30;;;;;;;8.60;7.00;;;;;;;19.29;69.29;100448.67;88289;286;137456;-80
2023/09/23 01:02:33;;;;;;;7.30;6.50;;;;;;;19.17;69.74;100436.21;88433;283;22560;-82
2023/09/23 01:04:36;;;;;;;9.60;6.90;;;;;;;19.23;69.85;100458.89;88350;286;135779;-81
2023/09/23 01:06:38;;;;;;;8.20;6.70;;;;;;;19.21;70.10;100457.08;88597;283;25230;-78
2023/09/23 01:08:42;;;;;;;9.80;7.10;;;;;;;19.20;70.32;100457.11;88466;284;136050;-77
2023/09/23 01:10:46;;;;;;;12.80;7.40;;;;;;;19.19;70.30;100458.92;88526;280;26000;-76
2023/09/23 01:12:49;;;;;;;13.10;7.20;;;;;;;19.17;70.48;100461.33;88521;277;136067;-74
2023/09/23 01:14:52;;;;;;;12.80;6.90;;;;;;;19.15;70.54;100461.94;88607;275;25183;-77
2023/09/23 01:16:58;;;;;;;8.80;6.70;;;;;;;19.14;70.62;100462.52;88703;275;136094;-76
2023/09/23 01:19:02;;;;;;;8.10;7.30;;;;;;;19.13;70.49;100459.35;89351;282;22532;-79
2023/09/23 01:21:08;;;;;;;7.80;6.80;;;;;;;19.13;70.75;100461.04;89783;276;135700;-82
2023/09/23 01:23:11;;;;;;;8.20;7.20;;;;;;;19.12;70.70;100461.86;90220;282;25261;-76
2023/09/23 01:25:14;;;;;;;13.10;7.20;;;;;;;19.13;70.41;100462.42;89921;282;136568;-76
2023/09/23 01:27:18;;;;;;;8.70;6.30;;;;;;;19.13;70.47;100465.64;89126;280;22520;-82
2023/09/23 01:29:22;;;;;;;8.90;7.50;;;;;;;19.14;70.33;100474.09;88669;281;136974;-82
2023/09/23 01:31:29;;;;;;;18.70;7.10;;;;;;;19.15;70.50;100474.14;88730;281;22553;-84
2023/09/23 01:33:34;;;;;;;10.80;6.60;;;;;;;19.14;70.38;100473.28;88533;280;137209;-80
2023/09/23 01:35:36;;;;;;;12.40;6.30;;;;;;;19.14;70.35;100473.44;88677;273;22504;-77
2023/09/23 01:37:38;;;;;;;12.00;6.30;;;;;;;19.16;70.34;100482.45;88530;282;136132;-79
2023/09/23 01:39:41;;;;;;;10.90;6.60;;;;;;;19.15;70.50;100485.94;88462;274;24018;-80
2023/09/23 01:41:44;;;;;;;8.10;7.30;;;;;;;19.14;70.85;100491.95;88447;282;135956;-81
2023/09/23 01:43:46;;;;;;;10.00;7.10;;;;;;;19.10;70.97;100491.40;88562;274;25296;-77
2023/09/23 01:45:48;;;;;;;9.90;6.80;;;;;;;19.07;71.52;100491.60;88354;282;135948;-82
2023/09/23 01:47:50;;;;;;;14.70;7.40;;;;;;;19.04;71.54;100486.59;88521;282;22541;-70
2023/09/23 01:49:53;;;;;;;8.20;6.60;;;;;;;19.02;71.80;100489.80;88279;280;135908;-78
2023/09/23 01:51:55;;;;;;;8.10;6.90;;;;;;;19.00;71.86;100490.13;88551;282;25179;-79
2023/09/23 01:53:59;;;;;;;11.40;7.00;;;;;;;18.96;72.00;100490.16;88407;275;136000;-80
2023/09/23 01:56:01;;;;;;;7.70;6.30;;;;;;;18.93;72.60;100491.77;88576;273;22543;-79
2023/09/23 01:58:03;;;;;;;13.20;7.50;;;;;;;18.91;72.74;100489.95;88590;274;22545;-78
2023/09/23 02:00:08;;;;;;;13.40;7.20;;;;;;;18.90;72.49;100491.98;88573;282;136031;-78
2023/09/23 02:02:12;;;;;;;11.50;7.00;;;;;;;18.88;72.65;100500.85;90408;279;22519;-78
2023/09/23 02:04:14;;;;;;;9.10;7.00;;;;;;;18.85;72.91;100495.50;89983;279;135914;-76
2023/09/23 02:06:17;;;;;;;8.50;7.30;;;;;;;18.85;73.05;100496.33;88819;276;22612;-82
2023/09/23 02:08:19;;;;;;;8.20;7.40;;;;;;;18.84;73.05;100495.31;88595;282;135815;-78
2023/09/23 02:10:24;;;;;;;9.70;7.30;;;;;;;18.81;73.75;100499.86;88623;279;25174;-76
2023/09/23 02:12:26;;;;;;;;;;;;;;;18.77;74.12;100500.39;88496;275;135894;-81
2023/09/23 02:14:29;;;;;;;8.70;6.80;;;;;;;18.72;74.27;100497.27;88545;279;24061;-82
2023/09/23 02:16:32;;;;;;;9.50;8.00;;;;;;;18.69;74.19;100497.75;88362;275;135892;-79
2023/09/23 02:18:37;;;;;;;10.30;8.00;;;;;;;18.67;74.46;100498.50;88624;273;24125;-80
2023/09/23 02:20:40;;;;;;;9.10;7.10;;;;;;;18.64;74.70;100498.23;88459;274;136239;-76
2023/09/23 02:22:42;;;;;;;12.00;8.20;;;;;;;18.59;75.64;100498.02;88678;274;25118;-80
2023/09/23 02:24:44;;;;;;;9.50;7.60;;;;;;;18.54;75.86;100500.61;88433;275;136095;-80
2023/09/23 02:26:46;;;;;;;13.70;7.60;;;;;;;18.49;76.71;100499.86;88657;282;24676;-82
2023/09/23 02:28:48;;;;;;;8.80;7.40;;;;;;;18.47;76.80;100500.04;88510;274;136929;-79
2023/09/23 02:30:51;;;;;;;11.30;7.20;;;;;;;18.43;77.23;100498.32;88554;276;25134;-79
2023/09/23 02:32:53;;;;;;;11.00;7.50;;;;;;;18.40;77.65;100494.70;88667;279;136529;-76
2023/09/23 02:34:56;;;;;;;9.90;7.10;;;;;;;18.33;78.25;100492.54;88715;282;25155;-76
2023/09/23 02:36:58;;;;;;;11.40;7.00;;;;;;;18.27;78.81;100494.10;88395;281;135493;-81
2023/09/23 02:39:10;;;;;;;11.50;7.90;;;;;;;18.23;78.95;100494.30;88681;283;22546;-74
2023/09/23 02:41:13;;;;;;;11.30;7.70;;;;;;;18.17;79.52;100492.24;88372;279;136285;-72
2023/09/23 02:43:15;;;;;;;11.10;7.70;;;;;;;18.11;80.10;100497.00;88523;283;25905;-74
2023/09/23 02:45:18;;;;;;;8.60;7.70;;;;;;;18.07;80.52;100501.77;88621;282;136468;-74
2023/09/23 02:47:20;;;;;;;11.30;7.50;;;;;;;18.07;80.50;100498.69;88788;274;22583;-77
2023/09/23 02:49:22;;;;;;;11.10;8.00;;;;;;;18.05;81.00;100508.42;88635;275;136346;-72
2023/09/23 02:51:23;;;;;;;8.60;7.30;;;;;;;18.05;80.80;100513.86;88474;276;22504;-72
2023/09/23 02:53:25;;;;;;;11.10;7.30;;;;;;;18.04;80.78;100512.80;88701;284;136966;-73
2023/09/23 02:55:27;;;;;;;9.50;7.30;;;;;;;18.05;80.54;100520.84;88520;279;25322;-76
2023/09/23 02:57:29;;;;;;;8.40;6.90;;;;;;;18.01;80.82;100521.85;88496;274;136386;-72
2023/09/23 02:59:41;;;;;;;7.40;6.70;;;;;;;18.00;81.34;100527.27;88494;280;22545;-76
2023/09/23 03:01:48;;;;;;;11.40;7.80;;;;;;;17.96;81.49;100527.34;88396;275;136839;-70
2023/09/23 03:03:55;;;;;;;15.50;8.00;;;;;;;17.93;81.71;100525.85;88677;278;24449;-76
2023/09/23 03:05:57;;;;;;;9.50;7.90;;;;;;;17.89;81.79;100523.72;88409;282;136655;-73
2023/09/23 03:08:01;;;;;;;11.90;8.00;;;;;;;17.87;81.74;100525.77;88550;282;22557;-68
2023/09/23 03:10:09;;;;;;;10.30;7.90;;;;;;;17.86;82.02;100524.88;88400;284;22608;-78
2023/09/23 03:12:15;;;;;;;8.20;7.50;;;;;;;17.87;81.79;100531.00;88339;283;136956;-71
2023/09/23 03:14:18;;;;;;;10.10;6.70;;;;;;;17.87;81.98;100530.30;88552;275;24058;-74
2023/09/23 03:16:28;;;;;;;12.80;8.00;;;;;;;17.86;81.95;100529.60;88439;281;137349;-74
2023/09/23 03:18:55;;;;;;;8.50;7.60;;;;;;;17.89;81.79;100530.27;88542;282;22618;-74
2023/09/23 03:21:03;;;;;;;13.00;7.30;;;;;;;17.91;81.59;100525.33;88393;277;136876;-71
2023/09/23 03:23:10;;;;;;;10.70;6.80;;;;;;;17.91;81.80;100524.46;90305;276;25194;-83
2023/09/23 03:25:13;;;;;;;11.10;7.30;;;;;;;17.91;81.82;100524.30;91119;282;135720;-78
2023/09/23 03:27:16;;;;;;;8.10;7.00;;;;;;;17.89;81.63;100523.56;88400;282;22531;-77
2023/09/23 03:29:18;;;;;;;10.10;7.30;;;;;;;17.89;81.61;100519.36;88737;283;137683;-73
2023/09/23 03:31:20;;;;;;;7.60;6.90;;;;;;;17.92;81.48;100516.39;88918;281;22534;-69
2023/09/23 03:33:25;;;;;;;9.00;7.30;;;;;;;17.92;81.51;100518.02;88690;281;135973;-78
2023/09/23 03:35:28;;;;;;;14.90;8.40;;;;;;;17.89;81.60;100520.55;88493;279;25252;-73
2023/09/23 03:37:30;;;;;;;8.20;7.30;;;;;;;17.89;81.66;100521.73;88412;283;137065;-80
2023/09/23 03:39:33;;;;;;;11.00;7.70;;;;;;;17.81;81.76;100515.38;88546;278;22251;-74
2023/09/23 03:41:38;;;;;;;9.60;7.60;;;;;;;17.88;81.82;100524.15;88622;279;136607;-74
2023/09/23 03:43:41;;;;;;;11.10;8.60;;;;;;;17.86;82.19;100529.64;88786;281;24031;-74
2023/09/23 03:45:43;;;;;;;10.10;8.00;;;;;;;17.89;81.74;100532.35;88332;282;136760;-71
2023/09/23 03:47:46;;;;;;;9.70;8.00;;;;;;;17.91;81.67;100526.46;88559;278;25023;-74
2023/09/23 03:49:51;;;;;;;10.30;8.10;;;;;;;17.87;81.88;100529.72;88956;275;136191;-72
2023/09/23 03:51:53;;;;;;;9.60;7.80;;;;;;;17.86;82.10;100530.29;88817;275;22545;-74
2023/09/23 03:53:56;;;;;;;17.70;9.20;;;;;;;17.74;82.11;100519.22;88730;282;136915;-72
2023/09/23 03:56:00;;;;;;;10.50;8.10;;;;;;;17.76;82.33;100533.30;89043;282;22545;-73
2023/09/23 03:58:04;;;;;;;12.50;8.00;;;;;;;17.73;82.56;100533.11;88640;282;24035;-73
2023/09/23 04:00:15;;;;;;;9.40;8.50;;;;;;;17.73;82.67;100534.40;88569;283;137790;-76
2023/09/23 04:02:21;;;;;;;11.20;8.50;;;;;;;17.73;82.45;100531.66;88643;279;22542;-80
2023/09/23 04:04:23;;;;;;;9.00;7.90;;;;;;;17.72;82.44;100526.52;88684;275;137950;-75
2023/09/23 04:06:27;;;;;;;13.50;7.90;;;;;;;17.72;82.72;100529.30;88514;279;24827;-78
2023/09/23 04:08:29;;;;;;;9.20;7.60;;;;;;;17.72;82.91;100535.52;88589;282;137122;-77
2023/09/23 04:10:39;;;;;;;8.50;7.80;;;;;;;17.79;82.57;100540.06;88537;280;22552;-70
2023/09/23 04:12:42;;;;;;;9.30;8.00;;;;;;;17.92;82.49;100543.54;88860;281;136423;-71
2023/09/23 04:14:44;;;;;;;9.80;8.80;;;;;;;18.07;82.11;100543.79;88986;274;24050;-71
2023/09/23 04:16:45;;;;;;;14.60;10.10;;;;;;;18.29;81.06;100543.39;88648;274;138824;-71
2023/09/23 04:18:51;;;;;;;11.30;8.40;;;;;;;18.47;80.25;100544.14;88740;275;25201;-74
2023/09/23 04:20:53;;;;;;;14.10;9.00;;;;;;;18.68;79.19;100549.19;88668;278;137238;-70
2023/09/23 04:22:55;;;;;;;9.10;8.20;;;;;;;18.88;78.37;100552.45;88806;274;22532;-81
2023/09/23 04:24:57;;;;;;;10.00;8.90;;;;;;;19.05;77.65;100555.61;88789;273;136066;-78
2023/09/23 04:26:59;;;;;;;11.00;9.30;;;;;;;19.21;76.79;100544.13;88671;275;22531;-79
2023/09/23 04:29:01;;;;;;;14.20;8.50;;;;;;;19.50;75.63;100558.56;88609;274;136604;-78
2023/09/23 04:31:03;;;;;;;12.40;9.00;;;;;;;19.68;74.61;100559.60;88680;273;22539;-81
2023/09/23 04:33:05;;;;;;;12.80;10.50;;;;;;;19.89;73.81;100561.61;88740;273;136531;-78
2023/09/23 04:35:15;;;;;;;11.00;9.90;;;;;;;20.06;72.22;100559.15;88875;277;22613;-79
2023/09/23 04:37:17;;;;;;;11.60;9.20;;;;;;;20.16;71.68;100561.35;88669;274;137525;-78
2023/09/23 04:39:19;;;;;;;11.10;9.20;;;;;;;20.27;71.56;100558.96;88740;278;22559;-77
2023/09/23 04:41:21;;;;;;;14.00;10.20;;;;;;;20.46;70.49;100563.31;88644;274;136297;-80
2023/09/23 04:43:25;;;;;;;14.50;8.50;;;;;;;20.60;69.80;100563.33;88668;276;24135;-80
2023/09/23 04:45:27;;;;;;;16.00;9.40;;;;;;;20.78;69.18;100562.77;88682;275;137929;-78
2023/09/23 04:47:30;;;;;;;9.90;7.90;;;;;;;21.01;68.65;100568.38;88793;281;25121;-79
2023/09/23 04:49:32;;;;;;;12.40;8.90;;;;;;;21.27;66.91;100569.55;88592;275;135959;-77
2023/09/23 04:51:33;;;;;;;14.30;9.00;;;;;;;21.45;65.78;100568.23;88805;274;24037;-76
2023/09/23 04:53:35;;;;;;;12.10;8.50;;;;;;;21.52;65.04;100566.05;88632;277;137427;-79
2023/09/23 04:55:37;;;;;;;11.50;8.80;;;;;;;21.59;65.23;100568.29;89029;281;22526;-76
2023/09/23 04:57:39;;;;;;;10.30;8.40;;;;;;;21.78;64.97;100569.35;88936;274;136230;-76
2023/09/23 04:59:41;;;;;;;12.30;8.90;;;;;;;22.04;64.18;100566.48;88756;281;22920;-79
2023/09/23 05:01:43;;;;;;;13.90;8.10;;;;;;;22.35;63.33;100566.95;88680;278;137125;-77
2023/09/23 05:03:49;;;;;;;8.70;7.80;;;;;;;22.67;61.51;100560.84;88850;281;24488;-77
2023/09/23 05:05:51;;;;;;;11.90;7.10;;;;;;;22.93;60.41;100557.32;88776;274;135998;-76
2023/09/23 05:07:53;;;;;;;8.00;7.20;;;;;;;23.16;58.71;100562.49;88709;275;24228;-76
2023/09/23 05:09:55;;;;;;;10.60;8.00;;;;;;;23.27;58.11;100564.31;88710;281;137022;-79
2023/09/23 05:11:57;;;;;;;9.50;6.80;;;;;;;23.27;57.37;100569.27;88815;275;22699;-77
2023/09/23 05:13:59;;;;;;;9.00;6.80;;;;;;;23.15;57.46;100569.02;88724;275;136427;-79
2023/09/23 05:16:01;;;;;;;9.60;6.70;;;;;;;23.00;57.95;100565.67;88833;274;22539;-77
2023/09/23 05:18:03;;;;;;;11.00;7.10;;;;;;;22.84;58.09;100571.73;88838;275;22530;-77
2023/09/23 05:20:12;;;;;;;9.00;7.20;;;;;;;22.70;58.32;100572.23;88727;274;137754;-77
2023/09/23 05:22:13;;;;;;;11.40;7.10;;;;;;;22.64;58.69;100573.97;88963;273;23754;-77
2023/09/23 05:24:16;;;;;;;16.60;7.00;;;;;;;22.66;58.67;100568.66;88921;272;136386;-76
2023/09/23 05:26:19;;;;;;;14.50;7.40;;;;;;;22.75;58.50;100570.06;88947;274;22534;-78
2023/09/23 05:28:21;;;;;;;7.80;7.00;;;;;;;22.77;58.41;100572.67;90242;273;137385;-77
2023/09/23 05:30:26;;;;;;;8.40;6.30;;;;;;;22.71;58.19;100570.59;88959;280;23974;-76
2023/09/23 05:32:28;;;;;;;8.00;7.20;;;;;;;22.69;58.51;100575.20;88940;280;137310;-78
2023/09/23 05:34:29;;;;;;;8.40;6.40;;;;;;;22.76;58.12;100580.61;89373;274;22512;-78
2023/09/23 05:36:31;;;;;;;12.30;7.50;;;;;;;22.79;57.97;100582.36;90009;282;135906;-76
2023/09/23 05:38:36;;;;;;;10.60;6.80;;;;;;;22.89;57.76;100583.33;90103;281;23648;-79
2023/09/23 05:40:38;;;;;;;;;;;;;;;23.03;57.05;100582.05;89695;276;137150;-76
2023/09/23 05:42:40;;;;;;;15.40;7.90;;;;;;;23.14;56.49;100580.65;89899;275;22475;-76
2023/09/23 05:44:42;;;;;;;10.40;6.80;;;;;;;23.26;56.10;100583.73;90142;274;136142;-76
2023/09/23 05:46:44;;;;;;;9.80;5.40;;;;;;;23.48;55.97;100583.04;89275;278;22537;-77
2023/09/23 05:48:49;;;;;;;6.70;6.10;;;;;;;23.83;53.88;100583.50;89116;282;135964;-76
2023/09/23 05:50:51;;;;;;;6.20;5.60;;;;;;;23.99;53.07;100586.84;89117;282;22522;-77
2023/09/23 05:52:53;;;;;;;6.70;5.90;;;;;;;24.06;52.42;100586.41;88988;281;136221;-80
2023/09/23 05:54:55;;;;;;;7.80;5.70;;;;;;;24.04;52.37;100582.10;88934;281;24507;-78
2023/09/23 05:56:57;;;;;;;7.30;5.80;;;;;;;24.02;52.42;100578.13;88886;282;136132;-74
2023/09/23 05:58:58;;;;;;;7.20;6.10;;;;;;;24.14;51.96;100588.63;89010;282;23827;-77
2023/09/23 06:01:00;;;;;;;10.20;6.70;;;;;;;24.13;51.91;100586.13;88962;280;136236;-76
2023/09/23 06:03:03;;;;;;;6.30;5.50;;;;;;;24.11;51.55;100584.77;89128;280;22536;-79
2023/09/23 06:05:05;;;;;;;7.50;5.70;;;;;;;24.09;51.52;100589.19;88865;274;137346;-76
2023/09/23 06:07:07;;;;;;;8.40;5.90;;;;;;;24.16;51.52;100589.83;89051;277;22543;-76
2023/09/23 06:09:09;;;;;;;5.70;4.70;;;;;;;24.27;50.75;100592.39;88882;280;138062;-76
2023/09/23 06:11:11;;;;;;;8.50;5.20;;;;;;;24.37;50.04;100586.82;88891;274;25089;-76
2023/09/23 06:13:13;;;;;;;7.40;5.90;;;;;;;24.50;49.75;100587.30;88831;275;135988;-78
2023/09/23 06:15:15;;;;;;;7.50;5.40;;;;;;;24.64;49.60;100586.04;88822;273;22566;-76
2023/09/23 06:17:17;;;;;;;10.10;5.10;;;;;;;24.89;49.31;100585.74;88787;278;136923;-77
2023/09/23 06:19:18;;;;;;;6.70;6.10;;;;;;;25.22;47.65;100588.61;88884;274;22633;-77
2023/09/23 06:21:21;;;;;;;6.80;6.00;;;;;;;25.46;47.13;100588.89;88735;280;136048;-77
2023/09/23 06:23:22;;;;;;;12.80;5.50;;;;;;;25.60;46.59;100591.38;88852;274;22548;-78
2023/09/23 06:25:25;;;;;;;6.20;5.10;;;;;;;25.69;46.24;100596.45;88759;279;136202;-76
2023/09/23 06:27:26;;;;;;;9.00;5.20;;;;;;;25.75;46.06;100596.35;88898;274;25205;-77
2023/09/23 06:29:28;;;;;;;5.40;4.80;;;;;;;25.71;46.07;100594.73;88770;273;136451;-76
2023/09/23 06:31:30;;;;;;;6.70;5.10;;;;;;;25.52;46.39;100597.05;88818;274;22537;-75
2023/09/23 06:33:32;;;;;;;6.20;5.10;;;;;;;25.27;46.83;100597.88;88671;278;135978;-76
2023/09/23 06:35:34;;;;;;;8.50;5.10;;;;;;;24.94;47.72;100599.30;88743;275;25307;-76
2023/09/23 06:37:36;;;;;;;8.20;5.40;;;;;;;24.48;48.94;100607.79;88702;278;136021;-77
2023/09/23 06:39:37;;;;;;;11.50;6.00;;;;;;;24.00;50.75;100611.51;88845;273;22895;-76
2023/09/23 06:41:39;;;;;;;10.70;5.90;;;;;;;23.63;51.87;100615.48;88565;276;135957;-76
2023/09/23 06:43:41;;;;;;;7.20;4.90;;;;;;;23.27;53.32;100613.38;88709;274;22546;-75
2023/09/23 06:45:55;;;;;;;9.00;5.10;;;;;;;22.96;55.03;100617.35;88605;275;136037;-75
2023/09/23 06:47:57;;;;;;;6.20;5.50;;;;;;;22.76;56.17;100614.73;88650;274;22549;-76
2023/09/23 06:49:59;;;;;;;9.00;5.90;;;;;;;22.62;57.37;100617.10;88577;274;135952;-76
2023/09/23 06:52:00;;;;;;;6.60;6.00;;;;;;;22.55;58.22;100622.70;88664;274;23547;-77
2023/09/23 06:54:02;;;;;;;5.60;5.10;;;;;;;22.48;58.90;100627.27;88530;281;135694;-78
2023/09/23 06:56:05;;;;;;;9.50;5.50;;;;;;;22.42;59.72;100621.09;88574;279;136186;-76
2023/09/23 06:58:08;;;;;;;16.80;7.10;;;;;;;22.36;60.17;100622.40;88711;275;22521;-75
2023/09/23 07:00:11;;;;;;;8.50;5.80;;;;;;;22.31;60.46;100623.46;88704;282;137709;-75
2023/09/23 07:02:13;;;;;;;9.90;5.80;;;;;;;22.27;60.88;100620.70;88816;275;26165;-76
2023/09/23 07:04:15;;;;;;;13.90;6.30;;;;;;;22.30;61.06;100618.50;88747;274;136220;-75
2023/09/23 07:06:17;;;;;;;12.70;5.80;;;;;;;22.37;61.33;100625.08;88728;277;26399;-75
2023/09/23 07:08:18;;;;;;;6.60;5.10;;;;;;;22.49;61.22;100622.92;88736;280;137971;-76
2023/09/23 07:10:21;;;;;;;9.80;5.70;;;;;;;22.58;61.42;100627.02;88889;280;26519;-78
2023/09/23 07:12:23;;;;;;;8.60;5.30;;;;;;;22.63;61.53;100629.34;88771;273;137737;-76
2023/09/23 07:14:25;;;;;;;8.50;5.30;;;;;;;22.68;61.82;100624.20;88919;274;22532;-74
2023/09/23 07:16:27;;;;;;;13.40;6.90;;;;;;;22.70;61.94;100632.64;88696;275;136356;-76
2023/09/23 07:18:29;;;;;;;8.30;5.10;;;;;;;22.71;62.27;100629.99;88903;274;22527;-76
2023/09/23 07:20:31;;;;;;;9.10;5.20;;;;;;;22.73;62.15;100628.41;88696;274;135894;-75
2023/09/23 07:22:33;;;;;;;11.50;5.80;;;;;;;22.75;62.30;100633.86;88833;273;22542;-75
2023/09/23 07:24:35;;;;;;;9.00;6.20;;;;;;;22.69;62.46;100630.40;88756;274;136086;-76
2023/09/23 07:26:38;;;;;;;6.60;5.70;;;;;;;22.71;62.81;100633.24;88813;282;22532;-75
2023/09/23 07:28:39;;;;;;;9.60;6.30;;;;;;;22.71;63.11;100639.80;88686;274;137508;-75
2023/09/23 07:30:41;;;;;;;11.20;6.10;;;;;;;22.70;63.47;100644.64;88655;279;25219;-76
2023/09/23 07:32:43;;;;;;;11.30;6.30;;;;;;;22.71;63.46;100639.05;88621;279;136057;-74
2023/09/23 07:34:46;;;;;;;9.20;5.80;;;;;;;22.76;63.96;100635.23;88906;273;22550;-73
2023/09/23 07:36:48;;;;;;;8.90;5.30;;;;;;;22.84;63.76;100633.32;88758;273;136181;-75
2023/09/23 07:38:50;;;;;;;7.90;5.40;;;;;;;22.86;63.70;100639.95;88791;278;22619;-75
2023/09/23 07:40:53;;;;;;;9.80;5.70;;;;;;;22.89;63.95;100638.34;88494;274;135905;-74
2023/09/23 07:42:55;;;;;;;7.80;5.60;;;;;;;22.94;63.98;100644.95;88799;273;22585;-75
2023/09/23 07:44:57;;;;;;;7.50;5.00;;;;;;;22.97;63.73;100644.37;88713;274;136817;-76
2023/09/23 07:46:59;;;;;;;7.70;4.50;;;;;;;22.98;63.70;100635.91;89028;273;22546;-73
2023/09/23 07:49:01;;;;;;;9.80;5.60;;;;;;;22.97;64.39;100634.15;88723;273;135845;-77
2023/09/23 07:51:06;;;;;;;7.00;4.80;;;;;;;23.00;64.34;100627.59;88808;275;22536;-75
2023/09/23 07:53:07;;;;;;;7.70;5.00;;;;;;;23.05;64.41;100629.05;88686;275;135881;-77
2023/09/23 07:55:10;;;;;;;7.80;5.40;;;;;;;23.14;63.99;100627.09;88869;277;22546;-80
2023/09/23 07:57:12;;;;;;;6.40;5.00;;;;;;;23.19;63.73;100627.11;88660;281;136377;-80
2023/09/23 07:59:14;;;;;;;11.90;4.70;;;;;;;23.19;63.88;100638.58;88777;274;22581;-76
2023/09/23 08:01:17;;;;;;;10.60;5.00;;;;;;;23.20;63.85;100632.73;88566;280;136155;-76
2023/09/23 08:03:19;;;;;;;7.90;4.60;;;;;;;23.20;64.03;100628.37;88816;273;24137;-77
2023/09/23 08:05:24;;;;;;;8.20;4.40;;;;;;;23.30;63.86;100629.61;88727;275;135984;-74
2023/09/23 08:07:26;;;;;;;7.70;4.30;;;;;;;23.35;63.57;100631.20;88742;273;22534;-76
2023/09/23 08:09:28;;;;;;;9.20;4.70;;;;;;;23.33;63.75;100630.33;88680;278;136225;-78
2023/09/23 08:11:30;;;;;;;9.00;4.60;;;;;;;23.27;63.68;100624.04;88778;278;26367;-74
2023/09/23 08:13:32;;;;;;;11.90;5.00;;;;;;;23.24;63.78;100627.24;88738;275;136748;-75
2023/09/23 08:15:34;;;;;;;5.60;3.90;;;;;;;23.25;63.55;100642.80;88808;280;25080;-76
2023/09/23 08:17:36;;;;;;;8.10;4.70;;;;;;;23.25;62.89;100641.27;88680;274;136007;-76
2023/09/23 08:19:38;;;;;;;9.00;4.90;;;;;;;23.22;63.19;100624.23;88852;275;25230;-78
2023/09/23 08:21:40;;;;;;;6.50;4.70;;;;;;;23.23;63.45;100627.18;89134;275;136041;-74
2023/09/23 08:23:41;;;;;;;4.40;3.40;;;;;;;23.24;63.43;100618.20;89510;275;22497;-76
2023/09/23 08:25:44;;;;;;;4.30;3.60;;;;;;;23.31;63.33;100621.77;89142;279;136752;-77
2023/09/23 08:27:46;;;;;;;6.20;3.90;;;;;;;23.40;62.90;100615.83;89424;282;22709;-77
2023/09/23 08:29:49;;;;;;;7.80;3.90;;;;;;;23.49;62.54;100625.27;89796;274;135956;-76
2023/09/23 08:31:51;;;;;;;8.00;4.30;;;;;;;23.57;62.31;100626.43;90222;282;22531;-76
2023/09/23 08:33:53;;;;;;;5.30;4.50;;;;;;;23.62;61.94;100621.48;89835;282;135941;-77
2023/09/23 08:35:55;;;;;;;9.30;4.50;;;;;;;23.67;62.02;100623.56;89690;282;22543;-75
2023/09/23 08:37:57;;;;;;;8.80;4.00;;;;;;;23.69;61.94;100623.19;88722;282;473555;-77
2023/09/23 08:39:58;;;;;;;4.80;4.40;;;;;;;23.74;61.60;100614.23;88994;282;22522;-77
2023/09/23 08:42:03;;;;;;;8.60;4.00;;;;;;;23.74;61.33;100618.23;88846;275;136308;-76
2023/09/23 08:44:05;;;;;;;4.00;3.40;;;;;;;23.70;61.54;100612.90;88686;279;135967;-76
2023/09/23 08:46:11;;;;;;;9.10;3.70;;;;;;;23.71;61.93;100615.89;88955;273;22494;-77
2023/09/23 08:48:13;;;;;;;4.60;3.70;;;;;;;23.77;61.82;100620.70;88889;281;136345;-77
2023/09/23 08:50:17;;;;;;;4.30;4.00;;;;;;;23.80;60.89;100629.13;89141;275;25195;-79
2023/09/23 08:52:20;;;;;;;4.10;3.70;;;;;;;23.82;60.94;100621.77;88763;273;137219;-81
2023/09/23 08:54:25;;;;;;;9.00;3.60;;;;;;;23.81;60.42;100631.73;88738;282;22544;-80
2023/09/23 08:56:28;;;;;;;8.00;4.50;;;;;;;23.79;60.67;100619.48;88820;281;137016;-79
2023/09/23 08:58:30;;;;;;;7.20;4.30;;;;;;;23.81;61.11;100616.27;88790;275;22657;-80
2023/09/23 09:00:32;;;;;;;6.00;3.60;;;;;;;23.86;60.84;100613.72;88743;274;136305;-77
2023/09/23 09:02:34;;;;;;;9.60;3.90;;;;;;;23.86;60.80;100616.60;88918;278;23715;-78
2023/09/23 09:04:36;;;;;;;5.20;3.70;;;;;;;23.82;60.95;100609.26;89172;275;136067;-76
2023/09/23 09:06:46;;;;;;;6.60;3.40;;;;;;;23.80;60.93;100608.86;88850;279;22545;-71
2023/09/23 09:08:48;;;;;;;7.80;3.60;;;;;;;23.84;60.83;100603.64;88567;274;136128;-78
2023/09/23 09:10:51;;;;;;;6.60;3.30;;;;;;;23.87;60.51;100606.88;88657;278;22525;-78
2023/09/23 09:12:54;;;;;;;5.00;4.00;;;;;;;23.92;60.56;100611.60;88902;273;136201;-78
2023/09/23 09:14:59;;;;;;;4.20;3.80;;;;;;;23.95;60.70;100614.82;88760;281;22603;-79
2023/09/23 09:17:02;;;;;;;9.10;4.00;;;;;;;23.98;60.55;100617.86;88723;277;136139;-81
2023/09/23 09:19:04;;;;;;;5.70;4.20;;;;;;;23.98;59.97;100615.91;88865;274;26293;-73
2023/09/23 09:21:08;;;;;;;6.10;3.80;;;;;;;23.98;60.18;100604.91;88497;275;136068;-75
2023/09/23 09:23:15;;;;;;;13.40;4.70;;;;;;;24.02;60.13;100601.82;88801;275;22552;-76
2023/09/23 09:25:20;;;;;;;5.30;3.80;;;;;;;24.11;59.93;100605.30;88946;278;136088;-77
2023/09/23 09:27:22;;;;;;;4.60;3.80;;;;;;;24.14;59.78;100610.31;89042;279;25245;-76
2023/09/23 09:29:24;;;;;;;12.20;4.20;;;;;;;24.15;59.56;100614.30;88587;281;136066;-77
2023/09/23 09:31:32;;;;;;;3.90;3.30;;;;;;;24.11;59.35;100616.52;88853;281;25232;-79
2023/09/23 09:33:37;;;;;;;6.40;3.80;;;;;;;24.08;59.26;100616.62;88586;275;136187;-78
2023/09/23 09:35:39;;;;;;;9.50;4.20;;;;;;;24.10;59.66;100609.94;88850;275;25041;-79